createdAt,value
2023-04-26T00:00:04.210Z,993.73
2023-04-26T00:00:35.808Z,993.73
2023-04-26T00:01:07.608Z,993.63
2023-04-26T00:01:35.892Z,993.94
2023-04-26T00:01:55.620Z,993.94
2023-04-26T00:02:27.841Z,993.94
2023-04-26T00:02:59.671Z,993.53
2023-04-26T00:03:31.904Z,993.53
2023-04-26T00:04:03.957Z,993.84
2023-04-26T00:04:35.851Z,993.84
2023-04-26T00:05:08.383Z,993.84
2023-04-26T00:05:35.200Z,993.63
2023-04-26T00:05:55.957Z,993.63
2023-04-26T00:06:27.747Z,993.63
2023-04-26T00:06:59.597Z,993.63
2023-04-26T00:07:31.578Z,993.63
2023-04-26T00:08:04.431Z,993.63
2023-04-26T00:08:35.578Z,993.63
2023-04-26T00:09:07.605Z,993.73
2023-04-26T00:09:35.102Z,993.43
2023-04-26T00:09:55.603Z,993.43
2023-04-26T00:10:27.960Z,993.43
2023-04-26T00:10:59.616Z,993.73
2023-04-26T00:11:31.584Z,993.73
2023-04-26T00:12:03.655Z,993.84
2023-04-26T00:12:35.615Z,993.84
2023-04-26T00:13:07.636Z,993.73
2023-04-26T00:13:35.142Z,993.53
2023-04-26T00:13:55.628Z,993.53
2023-04-26T00:14:28.520Z,993.53
2023-04-26T00:14:59.736Z,993.63
2023-04-26T00:15:32.165Z,993.63
2023-04-26T00:16:03.841Z,993.94
2023-04-26T00:16:35.963Z,993.94
2023-04-26T00:17:07.908Z,993.73
2023-04-26T00:17:37.240Z,993.84
2023-04-26T00:17:55.643Z,993.84
2023-04-26T00:18:27.677Z,993.84
2023-04-26T00:18:59.642Z,993.94
2023-04-26T00:19:31.605Z,993.94
2023-04-26T00:20:03.884Z,993.73
2023-04-26T00:20:35.678Z,993.73
2023-04-26T00:21:07.689Z,993.84
2023-04-26T00:21:35.209Z,993.73
2023-04-26T00:21:55.558Z,993.73
2023-04-26T00:22:27.757Z,993.73
2023-04-26T00:22:59.604Z,993.84
2023-04-26T00:23:31.913Z,993.84
2023-04-26T00:24:04.293Z,993.94
2023-04-26T00:24:35.715Z,993.94
2023-04-26T00:25:07.960Z,993.73
2023-04-26T00:25:35.091Z,993.84
2023-04-26T00:25:55.908Z,993.84
2023-04-26T00:26:27.766Z,993.84
2023-04-26T00:26:59.958Z,993.73
2023-04-26T00:27:31.615Z,993.73
2023-04-26T00:28:03.619Z,993.84
2023-04-26T00:28:35.596Z,993.84
2023-04-26T00:29:07.639Z,993.84
2023-04-26T00:29:35.090Z,993.94
2023-04-26T00:29:55.594Z,993.94
2023-04-26T00:30:28.882Z,993.94
2023-04-26T00:30:59.667Z,993.94
2023-04-26T00:31:31.592Z,993.94
2023-04-26T00:32:03.942Z,993.84
2023-04-26T00:32:35.672Z,993.84
2023-04-26T00:33:07.684Z,993.73
2023-04-26T00:33:36.866Z,993.73
2023-04-26T00:33:55.686Z,993.73
2023-04-26T00:34:27.833Z,993.73
2023-04-26T00:34:59.594Z,993.84
2023-04-26T00:35:31.917Z,993.84
2023-04-26T00:36:03.686Z,993.84
2023-04-26T00:36:35.614Z,993.84
2023-04-26T00:37:07.624Z,993.73
2023-04-26T00:37:35.513Z,993.73
2023-04-26T00:37:55.592Z,993.73
2023-04-26T00:38:27.784Z,993.73
2023-04-26T00:38:59.654Z,993.73
2023-04-26T00:39:31.659Z,993.73
2023-04-26T00:40:04.694Z,993.94
2023-04-26T00:40:35.904Z,993.94
2023-04-26T00:41:07.863Z,993.84
2023-04-26T00:41:35.222Z,993.94
2023-04-26T00:41:55.660Z,993.94
2023-04-26T00:42:29.433Z,993.94
2023-04-26T00:42:59.954Z,993.84
2023-04-26T00:43:31.771Z,993.84
2023-04-26T00:44:04.601Z,993.73
2023-04-26T00:44:36.658Z,993.73
2023-04-26T00:45:08.510Z,993.84
2023-04-26T00:45:35.405Z,993.94
2023-04-26T00:45:56.056Z,993.94
2023-04-26T00:46:28.952Z,993.94
2023-04-26T00:46:59.775Z,993.84
2023-04-26T00:47:31.784Z,993.84
2023-04-26T00:48:03.912Z,993.84
2023-04-26T00:48:35.860Z,993.84
2023-04-26T00:49:07.832Z,993.84
2023-04-26T00:49:36.234Z,993.73
2023-04-26T00:49:55.630Z,993.73
2023-04-26T00:50:28.355Z,993.73
2023-04-26T00:50:59.929Z,993.94
2023-04-26T00:51:31.946Z,993.94
2023-04-26T00:52:03.636Z,993.94
2023-04-26T00:52:35.679Z,993.94
2023-04-26T00:53:07.697Z,993.84
2023-04-26T00:53:35.167Z,993.73
2023-04-26T00:53:55.665Z,993.73
2023-04-26T00:54:27.882Z,993.73
2023-04-26T00:54:59.659Z,994.04
2023-04-26T00:55:31.951Z,994.04
2023-04-26T00:56:04.361Z,994.04
2023-04-26T00:56:35.686Z,994.04
2023-04-26T00:57:07.666Z,993.63
2023-04-26T00:57:35.224Z,993.84
2023-04-26T00:57:55.663Z,993.84
2023-04-26T00:58:27.890Z,993.84
2023-04-26T00:58:59.725Z,993.73
2023-04-26T00:59:31.704Z,993.73
2023-04-26T01:00:04.421Z,993.63
2023-04-26T01:00:35.686Z,993.63
2023-04-26T01:01:07.754Z,993.73
2023-04-26T01:01:35.231Z,993.73
2023-04-26T01:01:55.667Z,993.73
2023-04-26T01:02:28.665Z,993.73
2023-04-26T01:02:59.778Z,993.84
2023-04-26T01:03:31.745Z,993.84
2023-04-26T01:04:03.879Z,993.94
2023-04-26T01:04:35.794Z,993.94
2023-04-26T01:05:07.948Z,993.84
2023-04-26T01:05:36.095Z,993.84
2023-04-26T01:05:55.945Z,993.84
2023-04-26T01:06:27.894Z,993.84
2023-04-26T01:06:59.678Z,993.84
2023-04-26T01:07:31.674Z,993.84
2023-04-26T01:08:03.677Z,994.04
2023-04-26T01:08:36.028Z,994.04
2023-04-26T01:09:07.653Z,993.94
2023-04-26T01:09:35.107Z,993.94
2023-04-26T01:09:55.651Z,993.94
2023-04-26T01:10:28.260Z,993.94
2023-04-26T01:10:59.722Z,993.94
2023-04-26T01:11:32.056Z,993.94
2023-04-26T01:12:04.472Z,994.14
2023-04-26T01:12:35.663Z,994.14
2023-04-26T01:13:07.659Z,994.14
2023-04-26T01:13:35.121Z,994.04
2023-04-26T01:13:55.686Z,994.04
2023-04-26T01:14:27.892Z,994.04
2023-04-26T01:14:59.685Z,993.94
2023-04-26T01:15:32.152Z,993.94
2023-04-26T01:16:03.901Z,993.94
2023-04-26T01:16:35.714Z,993.94
2023-04-26T01:17:07.767Z,993.84
2023-04-26T01:17:35.130Z,993.84
2023-04-26T01:17:55.674Z,993.84
2023-04-26T01:18:28.478Z,993.84
2023-04-26T01:18:59.954Z,993.84
2023-04-26T01:19:32.168Z,993.84
2023-04-26T01:20:04.128Z,993.84
2023-04-26T01:20:35.682Z,993.84
2023-04-26T01:21:07.654Z,994.14
2023-04-26T01:21:36.725Z,993.84
2023-04-26T01:21:55.675Z,993.84
2023-04-26T01:22:27.949Z,993.84
2023-04-26T01:22:59.704Z,994.04
2023-04-26T01:23:31.700Z,994.04
2023-04-26T01:24:03.967Z,994.04
2023-04-26T01:24:35.706Z,994.04
2023-04-26T01:25:07.991Z,993.84
2023-04-26T01:25:35.120Z,994.04
2023-04-26T01:25:55.921Z,994.04
2023-04-26T01:26:27.994Z,994.04
2023-04-26T01:26:59.670Z,993.84
2023-04-26T01:27:31.663Z,993.84
2023-04-26T01:28:04.645Z,993.84
2023-04-26T01:28:35.711Z,993.84
2023-04-26T01:29:07.694Z,993.84
2023-04-26T01:29:35.181Z,994.04
2023-04-26T01:29:55.686Z,994.04
2023-04-26T01:30:28.497Z,994.04
2023-04-26T01:30:59.795Z,993.73
2023-04-26T01:31:31.821Z,993.73
2023-04-26T01:32:03.736Z,993.84
2023-04-26T01:32:35.733Z,993.84
2023-04-26T01:33:07.716Z,994.04
2023-04-26T01:33:35.197Z,994.14
2023-04-26T01:33:55.601Z,994.14
2023-04-26T01:34:28.460Z,994.14
2023-04-26T01:34:59.658Z,993.94
2023-04-26T01:35:31.885Z,993.94
2023-04-26T01:36:03.660Z,994.14
2023-04-26T01:36:35.748Z,994.14
2023-04-26T01:37:07.704Z,993.84
2023-04-26T01:37:35.893Z,994.04
2023-04-26T01:37:55.649Z,994.04
2023-04-26T01:38:27.865Z,994.04
2023-04-26T01:38:59.650Z,993.84
2023-04-26T01:39:31.659Z,993.84
2023-04-26T01:40:03.966Z,993.84
2023-04-26T01:40:35.696Z,993.84
2023-04-26T01:41:07.588Z,993.94
2023-04-26T01:41:35.102Z,993.94
2023-04-26T01:41:55.615Z,993.94
2023-04-26T01:42:27.881Z,993.94
2023-04-26T01:42:59.629Z,994.04
2023-04-26T01:43:31.645Z,994.04
2023-04-26T01:44:04.579Z,993.73
2023-04-26T01:44:36.041Z,993.73
2023-04-26T01:45:08.154Z,993.94
2023-04-26T01:45:35.081Z,993.84
2023-04-26T01:45:55.921Z,993.84
2023-04-26T01:46:28.069Z,993.84
2023-04-26T01:46:59.653Z,993.63
2023-04-26T01:47:31.649Z,993.63
2023-04-26T01:48:03.883Z,993.94
2023-04-26T01:48:35.793Z,993.94
2023-04-26T01:49:07.637Z,993.84
2023-04-26T01:49:35.079Z,993.84
2023-04-26T01:49:55.638Z,993.84
2023-04-26T01:50:28.688Z,993.84
2023-04-26T01:50:59.642Z,993.94
2023-04-26T01:51:31.621Z,993.94
2023-04-26T01:52:03.690Z,994.04
2023-04-26T01:52:35.645Z,994.04
2023-04-26T01:53:07.656Z,993.84
2023-04-26T01:53:36.161Z,993.94
2023-04-26T01:53:55.634Z,993.94
2023-04-26T01:54:27.915Z,993.94
2023-04-26T01:54:59.638Z,993.94
2023-04-26T01:55:31.951Z,993.94
2023-04-26T01:56:03.686Z,993.73
2023-04-26T01:56:35.720Z,993.73
2023-04-26T01:57:07.686Z,993.84
2023-04-26T01:57:35.090Z,993.84
2023-04-26T01:57:55.600Z,993.84
2023-04-26T01:58:28.000Z,993.84
2023-04-26T01:58:59.710Z,993.84
2023-04-26T01:59:31.617Z,993.84
2023-04-26T02:00:06.248Z,993.94
2023-04-26T02:00:36.063Z,993.94
2023-04-26T02:01:07.663Z,993.94
2023-04-26T02:01:35.141Z,993.94
2023-04-26T02:01:55.685Z,993.94
2023-04-26T02:02:28.001Z,993.94
2023-04-26T02:02:59.776Z,993.94
2023-04-26T02:03:31.698Z,993.94
2023-04-26T02:04:03.718Z,993.94
2023-04-26T02:04:35.710Z,993.94
2023-04-26T02:05:08.008Z,993.94
2023-04-26T02:05:35.085Z,993.84
2023-04-26T02:05:55.876Z,993.84
2023-04-26T02:06:28.438Z,993.84
2023-04-26T02:06:59.649Z,993.94
2023-04-26T02:07:31.673Z,993.94
2023-04-26T02:08:03.723Z,993.94
2023-04-26T02:08:35.708Z,993.94
2023-04-26T02:09:07.646Z,993.94
2023-04-26T02:09:35.457Z,993.84
2023-04-26T02:09:55.634Z,993.84
2023-04-26T02:10:28.756Z,993.84
2023-04-26T02:10:59.989Z,994.04
2023-04-26T02:11:31.716Z,994.04
2023-04-26T02:12:03.712Z,993.94
2023-04-26T02:12:35.701Z,993.94
2023-04-26T02:13:07.634Z,993.84
2023-04-26T02:13:36.773Z,993.94
2023-04-26T02:13:55.645Z,993.94
2023-04-26T02:14:27.979Z,993.94
2023-04-26T02:14:59.647Z,993.73
2023-04-26T02:15:32.194Z,993.73
2023-04-26T02:16:03.975Z,993.94
2023-04-26T02:16:35.708Z,993.94
2023-04-26T02:17:07.674Z,993.84
2023-04-26T02:17:35.123Z,993.94
2023-04-26T02:17:55.757Z,993.94
2023-04-26T02:18:28.040Z,993.94
2023-04-26T02:18:59.691Z,993.84
2023-04-26T02:19:31.630Z,993.84
2023-04-26T02:20:04.805Z,993.73
2023-04-26T02:20:35.672Z,993.73
2023-04-26T02:21:07.663Z,993.84
2023-04-26T02:21:35.070Z,993.73
2023-04-26T02:21:55.663Z,993.73
2023-04-26T02:22:27.986Z,993.73
2023-04-26T02:22:59.670Z,993.73
2023-04-26T02:23:31.651Z,993.73
2023-04-26T02:24:03.749Z,994.04
2023-04-26T02:24:36.066Z,994.04
2023-04-26T02:25:08.136Z,993.94
2023-04-26T02:25:35.086Z,993.94
2023-04-26T02:25:55.910Z,993.94
2023-04-26T02:26:28.464Z,993.94
2023-04-26T02:26:59.753Z,993.73
2023-04-26T02:27:31.671Z,993.73
2023-04-26T02:28:03.820Z,993.73
2023-04-26T02:28:35.680Z,993.73
2023-04-26T02:29:07.685Z,993.94
2023-04-26T02:29:44.285Z,993.73
2023-04-26T02:29:55.750Z,993.73
2023-04-26T02:30:28.632Z,993.73
2023-04-26T02:30:59.713Z,993.94
2023-04-26T02:31:31.642Z,993.94
2023-04-26T02:32:03.819Z,993.94
2023-04-26T02:32:35.740Z,993.94
2023-04-26T02:33:07.725Z,993.84
2023-04-26T02:33:35.053Z,993.94
2023-04-26T02:33:55.681Z,993.94
2023-04-26T02:34:28.072Z,993.94
2023-04-26T02:34:59.712Z,993.94
2023-04-26T02:35:32.029Z,993.94
2023-04-26T02:36:04.477Z,993.84
2023-04-26T02:36:35.715Z,993.84
2023-04-26T02:37:07.770Z,993.84
2023-04-26T02:37:35.080Z,993.84
2023-04-26T02:37:55.662Z,993.84
2023-04-26T02:38:28.042Z,993.84
2023-04-26T02:38:59.657Z,993.73
2023-04-26T02:39:31.660Z,993.73
2023-04-26T02:40:04.026Z,993.63
2023-04-26T02:40:35.666Z,993.63
2023-04-26T02:41:07.687Z,994.14
2023-04-26T02:41:35.617Z,993.94
2023-04-26T02:41:55.677Z,993.94
2023-04-26T02:42:28.397Z,993.94
2023-04-26T02:42:59.691Z,993.73
2023-04-26T02:43:31.710Z,993.73
2023-04-26T02:44:03.810Z,993.84
2023-04-26T02:44:35.711Z,993.84
2023-04-26T02:45:08.156Z,994.04
2023-04-26T02:45:36.122Z,993.94
2023-04-26T02:45:56.031Z,993.94
2023-04-26T02:46:28.131Z,993.94
2023-04-26T02:46:59.720Z,993.84
2023-04-26T02:47:31.668Z,993.84
2023-04-26T02:48:03.809Z,993.94
2023-04-26T02:48:35.674Z,993.94
2023-04-26T02:49:07.673Z,993.84
2023-04-26T02:49:35.373Z,993.94
2023-04-26T02:49:55.680Z,993.94
2023-04-26T02:50:28.352Z,993.94
2023-04-26T02:50:59.696Z,993.84
2023-04-26T02:51:31.661Z,993.84
2023-04-26T02:52:04.496Z,993.63
2023-04-26T02:52:35.980Z,993.63
2023-04-26T02:53:07.703Z,993.84
2023-04-26T02:53:35.464Z,993.53
2023-04-26T02:53:55.676Z,993.53
2023-04-26T02:54:28.132Z,993.53
2023-04-26T02:54:59.697Z,993.84
2023-04-26T02:55:31.962Z,993.84
2023-04-26T02:56:03.733Z,993.73
2023-04-26T02:56:35.692Z,993.73
2023-04-26T02:57:07.676Z,993.63
2023-04-26T02:57:35.061Z,994.04
2023-04-26T02:57:55.646Z,994.04
2023-04-26T02:58:28.404Z,994.04
2023-04-26T02:58:59.725Z,993.84
2023-04-26T02:59:31.699Z,993.84
2023-04-26T03:00:04.319Z,993.94
2023-04-26T03:00:35.881Z,993.94
2023-04-26T03:01:07.751Z,993.94
2023-04-26T03:01:35.869Z,993.84
2023-04-26T03:01:55.699Z,993.84
2023-04-26T03:02:28.208Z,993.84
2023-04-26T03:03:00.226Z,993.73
2023-04-26T03:03:31.803Z,993.73
2023-04-26T03:04:04.087Z,993.73
2023-04-26T03:04:36.479Z,993.73
2023-04-26T03:05:07.970Z,993.84
2023-04-26T03:05:35.355Z,994.04
2023-04-26T03:05:55.957Z,994.04
2023-04-26T03:06:28.177Z,994.04
2023-04-26T03:06:59.719Z,993.73
2023-04-26T03:07:31.724Z,993.73
2023-04-26T03:08:03.865Z,993.84
2023-04-26T03:08:35.682Z,993.84
2023-04-26T03:09:07.705Z,993.94
2023-04-26T03:09:35.073Z,993.84
2023-04-26T03:09:55.849Z,993.84
2023-04-26T03:10:28.675Z,993.84
2023-04-26T03:10:59.695Z,993.63
2023-04-26T03:11:31.675Z,993.63
2023-04-26T03:12:03.798Z,993.73
2023-04-26T03:12:35.711Z,993.73
2023-04-26T03:13:07.692Z,993.94
2023-04-26T03:13:39.363Z,993.73
2023-04-26T03:14:11.703Z,993.73
2023-04-26T03:14:35.161Z,993.63
2023-04-26T03:14:59.711Z,993.63
2023-04-26T03:15:32.212Z,993.63
2023-04-26T03:16:04.116Z,993.84
2023-04-26T03:16:35.751Z,993.84
2023-04-26T03:17:07.722Z,993.73
2023-04-26T03:17:35.053Z,993.73
2023-04-26T03:17:55.746Z,993.73
2023-04-26T03:18:28.179Z,993.73
2023-04-26T03:18:59.694Z,993.84
2023-04-26T03:19:31.713Z,993.84
2023-04-26T03:20:04.857Z,993.73
2023-04-26T03:20:35.815Z,993.73
2023-04-26T03:21:07.694Z,993.84
2023-04-26T03:21:35.143Z,993.63
2023-04-26T03:21:56.008Z,993.63
2023-04-26T03:22:28.143Z,993.63
2023-04-26T03:22:59.743Z,993.73
2023-04-26T03:23:31.725Z,993.73
2023-04-26T03:24:03.788Z,993.84
2023-04-26T03:24:35.741Z,993.84
2023-04-26T03:25:08.019Z,993.94
2023-04-26T03:25:35.072Z,993.73
2023-04-26T03:25:56.144Z,993.73
2023-04-26T03:26:28.418Z,993.73
2023-04-26T03:26:59.706Z,993.84
2023-04-26T03:27:31.731Z,993.84
2023-04-26T03:28:03.765Z,993.94
2023-04-26T03:28:35.748Z,993.94
2023-04-26T03:29:07.697Z,993.73
2023-04-26T03:29:35.971Z,993.84
2023-04-26T03:29:55.711Z,993.84
2023-04-26T03:30:28.675Z,993.84
2023-04-26T03:30:59.767Z,993.73
2023-04-26T03:31:31.756Z,993.73
2023-04-26T03:32:03.808Z,993.94
2023-04-26T03:32:35.813Z,993.94
2023-04-26T03:33:07.927Z,993.73
2023-04-26T03:33:35.293Z,994.04
2023-04-26T03:33:55.707Z,994.04
2023-04-26T03:34:28.181Z,994.04
2023-04-26T03:34:59.716Z,993.84
2023-04-26T03:35:31.987Z,993.84
2023-04-26T03:36:04.550Z,993.73
2023-04-26T03:36:35.833Z,993.73
2023-04-26T03:37:07.731Z,993.94
2023-04-26T03:37:35.070Z,994.04
2023-04-26T03:37:57.977Z,994.04
2023-04-26T03:38:28.192Z,994.04
2023-04-26T03:38:59.776Z,993.94
2023-04-26T03:39:31.727Z,993.94
2023-04-26T03:40:04.088Z,993.94
2023-04-26T03:40:35.747Z,993.94
2023-04-26T03:41:07.733Z,993.84
2023-04-26T03:41:35.070Z,993.84
2023-04-26T03:41:55.699Z,993.84
2023-04-26T03:42:28.503Z,993.84
2023-04-26T03:42:59.725Z,994.04
2023-04-26T03:43:31.706Z,994.04
2023-04-26T03:44:03.799Z,993.84
2023-04-26T03:44:36.015Z,993.84
2023-04-26T03:45:08.394Z,993.73
2023-04-26T03:45:37.029Z,993.84
2023-04-26T03:45:56.069Z,993.84
2023-04-26T03:46:28.252Z,993.84
2023-04-26T03:46:59.739Z,993.94
2023-04-26T03:47:31.773Z,993.94
2023-04-26T03:48:03.917Z,993.84
2023-04-26T03:48:35.785Z,993.84
2023-04-26T03:49:07.706Z,993.84
2023-04-26T03:49:35.058Z,993.84
2023-04-26T03:49:55.733Z,993.84
2023-04-26T03:50:28.553Z,993.84
2023-04-26T03:50:59.705Z,993.63
2023-04-26T03:51:31.728Z,993.63
2023-04-26T03:52:04.552Z,993.94
2023-04-26T03:52:35.854Z,993.94
2023-04-26T03:53:08.020Z,993.84
2023-04-26T03:53:35.094Z,993.84
2023-04-26T03:53:55.753Z,993.84
2023-04-26T03:54:28.210Z,993.84
2023-04-26T03:55:00.058Z,993.73
2023-04-26T03:55:31.986Z,993.73
2023-04-26T03:56:03.846Z,993.84
2023-04-26T03:56:35.753Z,993.84
2023-04-26T03:57:07.763Z,993.63
2023-04-26T03:57:35.068Z,993.73
2023-04-26T03:57:55.700Z,993.73
2023-04-26T03:58:28.417Z,993.73
2023-04-26T03:58:59.741Z,993.94
2023-04-26T03:59:31.718Z,993.94
2023-04-26T04:00:04.346Z,993.84
2023-04-26T04:00:35.737Z,993.84
2023-04-26T04:01:07.729Z,993.84
2023-04-26T04:01:35.927Z,993.73
2023-04-26T04:01:55.816Z,993.73
2023-04-26T04:02:27.394Z,993.73
2023-04-26T04:02:59.464Z,993.73
2023-04-26T04:03:31.459Z,993.73
2023-04-26T04:04:03.406Z,993.73
2023-04-26T04:04:36.077Z,993.73
2023-04-26T04:05:07.829Z,993.63
2023-04-26T04:05:35.129Z,993.94
2023-04-26T04:05:55.574Z,993.94
2023-04-26T04:06:27.296Z,993.94
2023-04-26T04:07:01.275Z,993.84
2023-04-26T04:07:33.118Z,993.84
2023-04-26T04:08:03.737Z,993.84
2023-04-26T04:08:35.700Z,993.84
2023-04-26T04:09:07.842Z,993.73
2023-04-26T04:09:35.079Z,993.84
2023-04-26T04:09:55.859Z,993.84
2023-04-26T04:10:28.013Z,993.84
2023-04-26T04:11:00.710Z,993.73
2023-04-26T04:11:31.880Z,993.73
2023-04-26T04:12:03.797Z,993.73
2023-04-26T04:12:35.857Z,993.73
2023-04-26T04:13:07.966Z,993.84
2023-04-26T04:13:35.174Z,993.73
2023-04-26T04:13:55.869Z,993.73
2023-04-26T04:14:27.863Z,993.73
2023-04-26T04:14:59.862Z,993.94
2023-04-26T04:15:32.457Z,993.94
2023-04-26T04:16:04.229Z,993.73
2023-04-26T04:16:36.900Z,993.73
2023-04-26T04:17:07.873Z,993.94
2023-04-26T04:17:38.242Z,993.63
2023-04-26T04:17:55.917Z,993.63
2023-04-26T04:18:27.871Z,993.63
2023-04-26T04:18:59.908Z,994.04
2023-04-26T04:19:31.874Z,994.04
2023-04-26T04:20:04.266Z,993.63
2023-04-26T04:20:36.719Z,993.63
2023-04-26T04:21:07.838Z,993.73
2023-04-26T04:21:35.203Z,993.84
2023-04-26T04:21:55.856Z,993.84
2023-04-26T04:22:27.896Z,993.84
2023-04-26T04:22:59.832Z,993.63
2023-04-26T04:23:32.100Z,993.63
2023-04-26T04:24:03.945Z,993.73
2023-04-26T04:24:35.832Z,993.73
2023-04-26T04:25:08.158Z,993.84
2023-04-26T04:25:35.138Z,993.63
2023-04-26T04:25:56.123Z,993.63
2023-04-26T04:26:27.884Z,993.63
2023-04-26T04:27:00.594Z,993.73
2023-04-26T04:27:31.816Z,993.73
2023-04-26T04:28:03.965Z,993.94
2023-04-26T04:28:35.886Z,993.94
2023-04-26T04:29:07.879Z,993.84
2023-04-26T04:29:35.159Z,993.73
2023-04-26T04:29:55.840Z,993.73
2023-04-26T04:30:28.413Z,993.73
2023-04-26T04:30:59.966Z,993.84
2023-04-26T04:31:31.912Z,993.84
2023-04-26T04:32:03.869Z,993.84
2023-04-26T04:32:35.878Z,993.84
2023-04-26T04:33:07.874Z,993.73
2023-04-26T04:33:35.177Z,993.84
2023-04-26T04:33:55.861Z,993.84
2023-04-26T04:34:27.882Z,993.84
2023-04-26T04:34:59.889Z,993.84
2023-04-26T04:35:32.220Z,993.84
2023-04-26T04:36:03.882Z,993.73
2023-04-26T04:36:37.260Z,993.73
2023-04-26T04:37:07.912Z,993.94
2023-04-26T04:37:35.146Z,993.63
2023-04-26T04:37:55.874Z,993.63
2023-04-26T04:38:27.898Z,993.63
2023-04-26T04:38:59.886Z,993.84
2023-04-26T04:39:31.830Z,993.84
2023-04-26T04:40:04.160Z,993.94
2023-04-26T04:40:36.146Z,993.94
2023-04-26T04:41:08.230Z,993.94
2023-04-26T04:41:35.618Z,994.04
2023-04-26T04:41:55.847Z,994.04
2023-04-26T04:42:27.941Z,994.04
2023-04-26T04:43:00.724Z,994.04
2023-04-26T04:43:31.889Z,994.04
2023-04-26T04:44:03.899Z,994.04
2023-04-26T04:44:35.843Z,994.04
2023-04-26T04:45:08.419Z,993.94
2023-04-26T04:45:35.194Z,993.94
2023-04-26T04:45:56.131Z,993.94
2023-04-26T04:46:27.924Z,993.94
2023-04-26T04:47:00.379Z,993.94
2023-04-26T04:47:31.885Z,993.94
2023-04-26T04:48:03.896Z,993.84
2023-04-26T04:48:35.977Z,993.84
2023-04-26T04:49:07.915Z,993.94
2023-04-26T04:49:35.171Z,994.21
2023-04-26T04:49:55.893Z,994.21
2023-04-26T04:50:28.274Z,994.21
2023-04-26T04:51:00.359Z,994.14
2023-04-26T04:51:32.799Z,994.14
2023-04-26T04:52:03.909Z,994.04
2023-04-26T04:52:36.665Z,994.04
2023-04-26T04:53:07.923Z,993.94
2023-04-26T04:53:35.272Z,994.21
2023-04-26T04:53:55.896Z,994.21
2023-04-26T04:54:27.905Z,994.21
2023-04-26T04:54:59.873Z,994.14
2023-04-26T04:55:32.129Z,994.14
2023-04-26T04:56:03.880Z,993.84
2023-04-26T04:56:35.979Z,993.84
2023-04-26T04:57:07.865Z,993.94
2023-04-26T04:57:35.118Z,994.04
2023-04-26T04:57:55.931Z,994.04
2023-04-26T04:58:27.894Z,994.04
2023-04-26T04:59:00.621Z,993.84
2023-04-26T04:59:31.871Z,993.84
2023-04-26T05:00:04.429Z,994.04
2023-04-26T05:00:35.922Z,994.04
2023-04-26T05:01:08.091Z,994.14
2023-04-26T05:01:35.183Z,994.14
2023-04-26T05:01:55.961Z,994.14
2023-04-26T05:02:28.148Z,994.14
2023-04-26T05:02:59.929Z,994.21
2023-04-26T05:03:31.984Z,994.21
2023-04-26T05:04:04.074Z,994.04
2023-04-26T05:04:36.055Z,994.04
2023-04-26T05:05:08.292Z,994.14
2023-04-26T05:05:35.171Z,994.21
2023-04-26T05:05:56.535Z,994.21
2023-04-26T05:06:27.950Z,994.21
2023-04-26T05:06:59.950Z,994.31
2023-04-26T05:07:31.898Z,994.31
2023-04-26T05:08:03.873Z,994.21
2023-04-26T05:08:35.874Z,994.21
2023-04-26T05:09:07.937Z,994.14
2023-04-26T05:09:35.190Z,994.21
2023-04-26T05:09:55.899Z,994.21
2023-04-26T05:10:28.928Z,994.21
2023-04-26T05:10:59.892Z,994.14
2023-04-26T05:11:31.876Z,994.14
2023-04-26T05:12:03.904Z,994.21
2023-04-26T05:12:35.870Z,994.21
2023-04-26T05:13:07.890Z,994.14
2023-04-26T05:13:36.065Z,994.21
2023-04-26T05:13:56.115Z,994.21
2023-04-26T05:14:27.955Z,994.21
2023-04-26T05:15:00.015Z,994.04
2023-04-26T05:15:32.583Z,994.04
2023-04-26T05:16:04.177Z,994.51
2023-04-26T05:16:35.879Z,994.51
2023-04-26T05:17:07.932Z,994.31
2023-04-26T05:17:35.219Z,994.31
2023-04-26T05:17:55.916Z,994.31
2023-04-26T05:18:28.063Z,994.31
2023-04-26T05:18:59.919Z,994.51
2023-04-26T05:19:31.892Z,994.51
2023-04-26T05:20:06.261Z,994.41
2023-04-26T05:20:35.880Z,994.41
2023-04-26T05:21:07.939Z,994.41
2023-04-26T05:21:35.127Z,994.31
2023-04-26T05:21:55.916Z,994.31
2023-04-26T05:22:28.066Z,994.31
2023-04-26T05:22:59.916Z,994.31
2023-04-26T05:23:31.929Z,994.31
2023-04-26T05:24:03.952Z,994.31
2023-04-26T05:24:35.885Z,994.31
2023-04-26T05:25:08.188Z,994.21
2023-04-26T05:25:35.200Z,994.41
2023-04-26T05:25:56.137Z,994.41
2023-04-26T05:26:28.765Z,994.41
2023-04-26T05:26:59.940Z,994.41
2023-04-26T05:27:31.911Z,994.41
2023-04-26T05:28:03.897Z,994.31
2023-04-26T05:28:36.425Z,994.31
2023-04-26T05:29:07.853Z,994.51
2023-04-26T05:29:38.147Z,994.51
2023-04-26T05:30:13.106Z,994.51
2023-04-26T05:30:35.204Z,994.41
2023-04-26T05:31:00.231Z,994.41
2023-04-26T05:31:31.903Z,994.41
2023-04-26T05:32:04.069Z,994.41
2023-04-26T05:32:35.961Z,994.41
2023-04-26T05:33:07.992Z,994.31
2023-04-26T05:33:35.199Z,994.51
2023-04-26T05:33:55.888Z,994.51
2023-04-26T05:34:27.985Z,994.51
2023-04-26T05:34:59.874Z,994.51
2023-04-26T05:35:32.157Z,994.51
2023-04-26T05:36:04.788Z,994.51
2023-04-26T05:36:35.896Z,994.51
2023-04-26T05:37:07.947Z,994.31
2023-04-26T05:37:35.166Z,994.51
2023-04-26T05:37:55.917Z,994.51
2023-04-26T05:38:28.049Z,994.51
2023-04-26T05:39:00.268Z,994.51
2023-04-26T05:39:31.963Z,994.51
2023-04-26T05:40:04.191Z,994.31
2023-04-26T05:40:35.930Z,994.31
2023-04-26T05:41:07.963Z,994.51
2023-04-26T05:41:35.778Z,994.51
2023-04-26T05:41:55.925Z,994.51
2023-04-26T05:42:28.606Z,994.51
2023-04-26T05:42:59.878Z,994.41
2023-04-26T05:43:31.894Z,994.41
2023-04-26T05:44:03.935Z,994.41
2023-04-26T05:44:35.892Z,994.41
2023-04-26T05:45:08.425Z,994.61
2023-04-26T05:45:37.764Z,994.41
2023-04-26T05:45:56.203Z,994.41
2023-04-26T05:46:28.321Z,994.41
2023-04-26T05:46:59.978Z,994.41
2023-04-26T05:47:31.892Z,994.41
2023-04-26T05:48:04.011Z,994.41
2023-04-26T05:48:35.891Z,994.41
2023-04-26T05:49:07.966Z,994.61
2023-04-26T05:49:35.168Z,994.72
2023-04-26T05:49:55.911Z,994.72
2023-04-26T05:50:28.341Z,994.72
2023-04-26T05:50:59.873Z,994.41
2023-04-26T05:51:31.878Z,994.41
2023-04-26T05:52:04.779Z,994.31
2023-04-26T05:52:35.930Z,994.31
2023-04-26T05:53:07.850Z,994.61
2023-04-26T05:53:35.159Z,994.51
2023-04-26T05:53:56.131Z,994.51
2023-04-26T05:54:28.032Z,994.51
2023-04-26T05:54:59.946Z,994.21
2023-04-26T05:55:32.221Z,994.21
2023-04-26T05:56:03.930Z,994.51
2023-04-26T05:56:35.909Z,994.51
2023-04-26T05:57:07.897Z,994.61
2023-04-26T05:57:35.173Z,994.61
2023-04-26T05:57:55.911Z,994.61
2023-04-26T05:58:28.717Z,994.61
2023-04-26T05:58:59.899Z,994.31
2023-04-26T05:59:31.860Z,994.31
2023-04-26T06:00:04.459Z,994.41
2023-04-26T06:00:35.885Z,994.41
2023-04-26T06:01:07.914Z,994.51
2023-04-26T06:01:36.072Z,994.51
2023-04-26T06:01:55.953Z,994.51
2023-04-26T06:02:28.358Z,994.51
2023-04-26T06:02:59.972Z,994.51
2023-04-26T06:03:32.089Z,994.51
2023-04-26T06:04:04.281Z,994.61
2023-04-26T06:04:36.986Z,994.61
2023-04-26T06:05:35.187Z,994.51
2023-04-26T06:05:56.353Z,994.51
2023-04-26T06:06:28.316Z,994.51
2023-04-26T06:06:59.935Z,994.72
2023-04-26T06:07:31.881Z,994.72
2023-04-26T06:08:03.867Z,994.51
2023-04-26T06:08:35.883Z,994.51
2023-04-26T06:09:08.011Z,994.82
2023-04-26T06:09:35.147Z,994.41
2023-04-26T06:09:55.897Z,994.41
2023-04-26T06:10:29.536Z,994.41
2023-04-26T06:11:00.050Z,994.61
2023-04-26T06:11:31.985Z,994.61
2023-04-26T06:12:04.022Z,994.61
2023-04-26T06:12:36.115Z,994.61
2023-04-26T06:13:07.936Z,994.51
2023-04-26T06:13:37.705Z,994.41
2023-04-26T06:13:55.972Z,994.41
2023-04-26T06:14:30.842Z,994.41